sensor_id;sensor_type;location;lat;lon;timestamp;P1;durP1;ratioP1;P2;durP2;ratioP2
60964;SDS011;46834;51.100;6.886;2023-02-03T00:01:31;7.68;;;2.63;;
60964;SDS011;46834;51.100;6.886;2023-02-03T00:03:57;4.13;;;2.33;;
60964;SDS011;46834;51.100;6.886;2023-02-03T00:06:23;5.95;;;2.60;;
60964;SDS011;46834;51.100;6.886;2023-02-03T00:08:51;7.00;;;2.50;;
60964;SDS011;46834;51.100;6.886;2023-02-03T00:11:19;6.25;;;2.72;;
60964;SDS011;46834;51.100;6.886;2023-02-03T00:13:46;5.22;;;2.25;;
60964;SDS011;46834;51.100;6.886;2023-02-03T00:16:11;3.50;;;1.90;;
60964;SDS011;46834;51.100;6.886;2023-02-03T00:18:37;5.07;;;2.50;;
60964;SDS011;46834;51.100;6.886;2023-02-03T00:21:03;4.53;;;2.10;;
60964;SDS011;46834;51.100;6.886;2023-02-03T00:23:29;4.70;;;2.55;;
60964;SDS011;46834;51.100;6.886;2023-02-03T00:25:57;6.45;;;2.78;;
60964;SDS011;46834;51.100;6.886;2023-02-03T00:28:31;7.10;;;2.83;;
60964;SDS011;46834;51.100;6.886;2023-02-03T00:30:56;3.30;;;2.20;;
60964;SDS011;46834;51.100;6.886;2023-02-03T00:33:22;4.75;;;2.55;;
60964;SDS011;46834;51.100;6.886;2023-02-03T00:35:48;4.35;;;1.90;;
60964;SDS011;46834;51.100;6.886;2023-02-03T00:38:13;7.30;;;2.60;;
60964;SDS011;46834;51.100;6.886;2023-02-03T00:40:40;6.07;;;2.38;;
60964;SDS011;46834;51.100;6.886;2023-02-03T00:43:05;5.10;;;2.33;;
60964;SDS011;46834;51.100;6.886;2023-02-03T00:45:31;3.72;;;2.25;;
60964;SDS011;46834;51.100;6.886;2023-02-03T00:47:56;4.32;;;2.20;;
60964;SDS011;46834;51.100;6.886;2023-02-03T00:50:22;6.68;;;2.33;;
60964;SDS011;46834;51.100;6.886;2023-02-03T00:52:48;2.83;;;1.80;;
60964;SDS011;46834;51.100;6.886;2023-02-03T00:55:13;4.00;;;1.98;;
60964;SDS011;46834;51.100;6.886;2023-02-03T00:57:39;4.57;;;2.25;;
60964;SDS011;46834;51.100;6.886;2023-02-03T01:00:05;3.35;;;2.10;;
60964;SDS011;46834;51.100;6.886;2023-02-03T01:02:32;4.30;;;2.22;;
60964;SDS011;46834;51.100;6.886;2023-02-03T01:04:58;9.45;;;2.42;;
60964;SDS011;46834;51.100;6.886;2023-02-03T01:07:23;5.80;;;2.15;;
60964;SDS011;46834;51.100;6.886;2023-02-03T01:09:49;3.80;;;2.00;;
60964;SDS011;46834;51.100;6.886;2023-02-03T01:12:14;3.78;;;2.13;;
60964;SDS011;46834;51.100;6.886;2023-02-03T01:14:40;5.82;;;1.88;;
60964;SDS011;46834;51.100;6.886;2023-02-03T01:17:06;4.53;;;2.15;;
60964;SDS011;46834;51.100;6.886;2023-02-03T01:19:31;5.18;;;2.28;;
60964;SDS011;46834;51.100;6.886;2023-02-03T01:21:57;5.30;;;2.00;;
60964;SDS011;46834;51.100;6.886;2023-02-03T01:24:23;6.65;;;2.20;;
60964;SDS011;46834;51.100;6.886;2023-02-03T01:26:48;3.65;;;1.75;;
60964;SDS011;46834;51.100;6.886;2023-02-03T01:29:14;5.30;;;1.92;;
60964;SDS011;46834;51.100;6.886;2023-02-03T01:31:40;3.28;;;1.65;;
60964;SDS011;46834;51.100;6.886;2023-02-03T01:34:07;6.13;;;2.55;;
60964;SDS011;46834;51.100;6.886;2023-02-03T01:36:37;3.97;;;2.10;;
60964;SDS011;46834;51.100;6.886;2023-02-03T01:39:03;5.10;;;2.10;;
60964;SDS011;46834;51.100;6.886;2023-02-03T01:41:31;4.20;;;1.95;;
60964;SDS011;46834;51.100;6.886;2023-02-03T01:44:01;6.47;;;2.00;;
60964;SDS011;46834;51.100;6.886;2023-02-03T01:52:42;4.13;;;1.67;;
60964;SDS011;46834;51.100;6.886;2023-02-03T01:55:12;4.32;;;2.17;;
60964;SDS011;46834;51.100;6.886;2023-02-03T01:57:49;4.93;;;1.90;;
60964;SDS011;46834;51.100;6.886;2023-02-03T02:00:22;4.82;;;1.90;;
60964;SDS011;46834;51.100;6.886;2023-02-03T02:02:48;6.60;;;2.10;;
60964;SDS011;46834;51.100;6.886;2023-02-03T02:07:58;6.28;;;2.28;;
60964;SDS011;46834;51.100;6.886;2023-02-03T02:10:26;5.28;;;1.98;;
60964;SDS011;46834;51.100;6.886;2023-02-03T02:12:55;3.00;;;1.63;;
60964;SDS011;46834;51.100;6.886;2023-02-03T02:15:25;2.95;;;1.67;;
60964;SDS011;46834;51.100;6.886;2023-02-03T02:18:28;8.95;;;2.10;;
60964;SDS011;46834;51.100;6.886;2023-02-03T02:21:11;6.05;;;1.75;;
60964;SDS011;46834;51.100;6.886;2023-02-03T02:27:33;4.68;;;1.83;;
60964;SDS011;46834;51.100;6.886;2023-02-03T02:33:44;2.35;;;1.42;;
60964;SDS011;46834;51.100;6.886;2023-02-03T02:36:32;2.97;;;1.50;;
60964;SDS011;46834;51.100;6.886;2023-02-03T02:39:19;3.35;;;1.90;;
60964;SDS011;46834;51.100;6.886;2023-02-03T02:42:03;3.92;;;1.70;;
60964;SDS011;46834;51.100;6.886;2023-02-03T02:45:10;4.07;;;1.60;;
60964;SDS011;46834;51.100;6.886;2023-02-03T02:47:45;4.38;;;1.40;;
60964;SDS011;46834;51.100;6.886;2023-02-03T02:50:13;4.32;;;1.77;;
60964;SDS011;46834;51.100;6.886;2023-02-03T02:52:47;6.93;;;1.77;;
60964;SDS011;46834;51.100;6.886;2023-02-03T02:55:25;7.30;;;2.08;;
60964;SDS011;46834;51.100;6.886;2023-02-03T02:57:57;3.53;;;1.90;;
60964;SDS011;46834;51.100;6.886;2023-02-03T03:00:31;4.00;;;1.70;;
60964;SDS011;46834;51.100;6.886;2023-02-03T03:03:10;3.33;;;1.80;;
60964;SDS011;46834;51.100;6.886;2023-02-03T03:05:43;4.70;;;1.95;;
60964;SDS011;46834;51.100;6.886;2023-02-03T03:08:22;2.88;;;1.58;;
60964;SDS011;46834;51.100;6.886;2023-02-03T03:11:02;4.38;;;2.05;;
60964;SDS011;46834;51.100;6.886;2023-02-03T03:13:31;4.97;;;1.90;;
60964;SDS011;46834;51.100;6.886;2023-02-03T03:16:03;6.03;;;2.08;;
60964;SDS011;46834;51.100;6.886;2023-02-03T03:18:34;5.03;;;1.95;;
60964;SDS011;46834;51.100;6.886;2023-02-03T03:21:09;5.63;;;2.35;;
60964;SDS011;46834;51.100;6.886;2023-02-03T03:23:44;3.47;;;1.90;;
60964;SDS011;46834;51.100;6.886;2023-02-03T03:26:25;2.85;;;1.65;;
60964;SDS011;46834;51.100;6.886;2023-02-03T03:29:05;2.80;;;1.60;;
60964;SDS011;46834;51.100;6.886;2023-02-03T03:31:38;3.90;;;1.88;;
60964;SDS011;46834;51.100;6.886;2023-02-03T03:34:05;4.28;;;1.90;;
60964;SDS011;46834;51.100;6.886;2023-02-03T03:39:11;5.10;;;1.95;;
60964;SDS011;46834;51.100;6.886;2023-02-03T03:41:57;7.07;;;2.60;;
60964;SDS011;46834;51.100;6.886;2023-02-03T03:44:38;4.63;;;1.90;;
60964;SDS011;46834;51.100;6.886;2023-02-03T03:47:18;4.18;;;2.10;;
60964;SDS011;46834;51.100;6.886;2023-02-03T03:50:09;6.25;;;1.95;;
60964;SDS011;46834;51.100;6.886;2023-02-03T03:52:43;4.53;;;1.90;;
60964;SDS011;46834;51.100;6.886;2023-02-03T03:55:12;6.13;;;2.30;;
60964;SDS011;46834;51.100;6.886;2023-02-03T03:57:47;4.20;;;1.95;;
60964;SDS011;46834;51.100;6.886;2023-02-03T04:00:23;3.72;;;1.92;;
60964;SDS011;46834;51.100;6.886;2023-02-03T04:02:53;6.93;;;2.38;;
60964;SDS011;46834;51.100;6.886;2023-02-03T04:05:22;5.18;;;2.00;;
60964;SDS011;46834;51.100;6.886;2023-02-03T04:07:49;3.58;;;2.10;;
60964;SDS011;46834;51.100;6.886;2023-02-03T04:10:25;6.60;;;2.38;;
60964;SDS011;46834;51.100;6.886;2023-02-03T04:13:02;3.95;;;1.80;;
60964;SDS011;46834;51.100;6.886;2023-02-03T04:15:28;3.40;;;1.90;;
60964;SDS011;46834;51.100;6.886;2023-02-03T04:17:55;4.60;;;2.13;;
60964;SDS011;46834;51.100;6.886;2023-02-03T04:20:22;3.22;;;1.77;;
60964;SDS011;46834;51.100;6.886;2023-02-03T04:22:48;3.20;;;1.80;;
60964;SDS011;46834;51.100;6.886;2023-02-03T04:25:15;6.18;;;1.92;;
60964;SDS011;46834;51.100;6.886;2023-02-03T04:27:40;6.38;;;1.98;;
60964;SDS011;46834;51.100;6.886;2023-02-03T04:30:06;4.78;;;1.80;;
60964;SDS011;46834;51.100;6.886;2023-02-03T04:32:34;4.93;;;1.90;;
60964;SDS011;46834;51.100;6.886;2023-02-03T04:35:00;4.63;;;1.65;;
60964;SDS011;46834;51.100;6.886;2023-02-03T04:37:29;8.55;;;1.98;;
60964;SDS011;46834;51.100;6.886;2023-02-03T04:39:55;5.43;;;2.00;;
60964;SDS011;46834;51.100;6.886;2023-02-03T04:42:21;3.55;;;1.30;;
60964;SDS011;46834;51.100;6.886;2023-02-03T04:44:48;5.35;;;1.75;;
60964;SDS011;46834;51.100;6.886;2023-02-03T04:47:15;5.18;;;2.00;;
60964;SDS011;46834;51.100;6.886;2023-02-03T04:49:42;3.55;;;1.50;;
60964;SDS011;46834;51.100;6.886;2023-02-03T04:52:08;3.60;;;1.50;;
60964;SDS011;46834;51.100;6.886;2023-02-03T04:54:35;6.18;;;2.05;;
60964;SDS011;46834;51.100;6.886;2023-02-03T04:57:00;3.75;;;1.70;;
60964;SDS011;46834;51.100;6.886;2023-02-03T04:59:26;5.00;;;1.90;;
60964;SDS011;46834;51.100;6.886;2023-02-03T05:01:52;5.50;;;1.60;;
60964;SDS011;46834;51.100;6.886;2023-02-03T05:04:18;5.65;;;1.70;;
60964;SDS011;46834;51.100;6.886;2023-02-03T05:06:43;2.55;;;1.30;;
60964;SDS011;46834;51.100;6.886;2023-02-03T05:09:09;4.82;;;1.80;;
60964;SDS011;46834;51.100;6.886;2023-02-03T05:11:35;4.88;;;1.67;;
60964;SDS011;46834;51.100;6.886;2023-02-03T05:14:01;5.95;;;1.60;;
60964;SDS011;46834;51.100;6.886;2023-02-03T05:16:26;3.88;;;1.40;;
60964;SDS011;46834;51.100;6.886;2023-02-03T05:18:52;4.38;;;1.95;;
60964;SDS011;46834;51.100;6.886;2023-02-03T05:21:18;4.82;;;1.55;;
60964;SDS011;46834;51.100;6.886;2023-02-03T05:23:44;3.20;;;1.73;;
60964;SDS011;46834;51.100;6.886;2023-02-03T05:26:09;5.32;;;1.50;;
60964;SDS011;46834;51.100;6.886;2023-02-03T05:28:36;5.28;;;1.73;;
60964;SDS011;46834;51.100;6.886;2023-02-03T05:31:02;3.80;;;1.58;;
60964;SDS011;46834;51.100;6.886;2023-02-03T05:33:28;2.80;;;1.30;;
60964;SDS011;46834;51.100;6.886;2023-02-03T05:35:54;5.82;;;1.60;;
60964;SDS011;46834;51.100;6.886;2023-02-03T05:38:21;4.03;;;1.58;;
60964;SDS011;46834;51.100;6.886;2023-02-03T05:40:47;4.80;;;1.55;;
60964;SDS011;46834;51.100;6.886;2023-02-03T05:43:33;5.25;;;1.33;;
60964;SDS011;46834;51.100;6.886;2023-02-03T05:46:00;3.90;;;1.58;;
60964;SDS011;46834;51.100;6.886;2023-02-03T05:48:27;4.22;;;1.40;;
60964;SDS011;46834;51.100;6.886;2023-02-03T05:50:53;2.63;;;1.50;;
60964;SDS011;46834;51.100;6.886;2023-02-03T05:53:19;6.20;;;1.50;;
60964;SDS011;46834;51.100;6.886;2023-02-03T05:55:44;4.18;;;1.27;;
60964;SDS011;46834;51.100;6.886;2023-02-03T05:58:10;4.57;;;1.38;;
60964;SDS011;46834;51.100;6.886;2023-02-03T06:00:36;5.05;;;1.35;;
60964;SDS011;46834;51.100;6.886;2023-02-03T06:03:02;5.10;;;1.52;;
60964;SDS011;46834;51.100;6.886;2023-02-03T06:05:29;3.38;;;1.40;;
60964;SDS011;46834;51.100;6.886;2023-02-03T06:07:56;2.17;;;1.13;;
60964;SDS011;46834;51.100;6.886;2023-02-03T06:10:23;5.38;;;1.60;;
60964;SDS011;46834;51.100;6.886;2023-02-03T06:12:49;4.70;;;1.60;;
60964;SDS011;46834;51.100;6.886;2023-02-03T06:15:15;2.88;;;1.20;;
60964;SDS011;46834;51.100;6.886;2023-02-03T06:17:45;5.40;;;1.45;;
60964;SDS011;46834;51.100;6.886;2023-02-03T06:20:13;4.05;;;1.58;;
60964;SDS011;46834;51.100;6.886;2023-02-03T06:22:42;4.55;;;1.42;;
60964;SDS011;46834;51.100;6.886;2023-02-03T06:25:08;3.67;;;1.30;;
60964;SDS011;46834;51.100;6.886;2023-02-03T06:27:34;6.82;;;1.70;;
60964;SDS011;46834;51.100;6.886;2023-02-03T06:30:00;4.75;;;1.15;;
60964;SDS011;46834;51.100;6.886;2023-02-03T06:32:26;4.72;;;1.50;;
60964;SDS011;46834;51.100;6.886;2023-02-03T06:34:52;4.97;;;1.33;;
60964;SDS011;46834;51.100;6.886;2023-02-03T06:37:17;7.53;;;1.58;;
60964;SDS011;46834;51.100;6.886;2023-02-03T06:39:43;7.85;;;1.25;;
60964;SDS011;46834;51.100;6.886;2023-02-03T06:42:08;3.60;;;1.13;;
60964;SDS011;46834;51.100;6.886;2023-02-03T06:44:34;3.42;;;1.23;;
60964;SDS011;46834;51.100;6.886;2023-02-03T06:47:00;4.45;;;1.25;;
60964;SDS011;46834;51.100;6.886;2023-02-03T06:49:28;4.05;;;1.42;;
60964;SDS011;46834;51.100;6.886;2023-02-03T06:51:54;6.55;;;1.23;;
60964;SDS011;46834;51.100;6.886;2023-02-03T06:54:20;2.58;;;1.20;;
60964;SDS011;46834;51.100;6.886;2023-02-03T06:56:46;3.05;;;1.00;;
60964;SDS011;46834;51.100;6.886;2023-02-03T06:59:12;7.53;;;1.40;;
60964;SDS011;46834;51.100;6.886;2023-02-03T07:01:38;4.68;;;1.45;;
60964;SDS011;46834;51.100;6.886;2023-02-03T07:04:03;3.72;;;1.60;;
60964;SDS011;46834;51.100;6.886;2023-02-03T07:06:29;2.80;;;1.35;;
60964;SDS011;46834;51.100;6.886;2023-02-03T07:08:58;5.57;;;1.52;;
60964;SDS011;46834;51.100;6.886;2023-02-03T07:11:29;4.43;;;1.23;;
60964;SDS011;46834;51.100;6.886;2023-02-03T07:13:56;4.53;;;1.27;;
60964;SDS011;46834;51.100;6.886;2023-02-03T07:16:22;5.07;;;1.38;;
60964;SDS011;46834;51.100;6.886;2023-02-03T07:18:48;4.70;;;1.50;;
60964;SDS011;46834;51.100;6.886;2023-02-03T07:21:14;1.80;;;0.98;;
60964;SDS011;46834;51.100;6.886;2023-02-03T07:23:40;5.85;;;1.23;;
60964;SDS011;46834;51.100;6.886;2023-02-03T07:26:06;3.78;;;1.35;;
60964;SDS011;46834;51.100;6.886;2023-02-03T07:28:35;4.10;;;1.05;;
60964;SDS011;46834;51.100;6.886;2023-02-03T07:31:01;2.60;;;1.15;;
60964;SDS011;46834;51.100;6.886;2023-02-03T07:33:28;2.10;;;0.95;;
60964;SDS011;46834;51.100;6.886;2023-02-03T07:35:55;3.17;;;1.10;;
60964;SDS011;46834;51.100;6.886;2023-02-03T07:38:24;5.57;;;1.30;;
60964;SDS011;46834;51.100;6.886;2023-02-03T07:40:52;3.20;;;1.25;;
60964;SDS011;46834;51.100;6.886;2023-02-03T07:43:18;3.38;;;1.30;;
60964;SDS011;46834;51.100;6.886;2023-02-03T07:45:44;4.30;;;1.65;;
60964;SDS011;46834;51.100;6.886;2023-02-03T07:48:10;2.40;;;1.10;;
60964;SDS011;46834;51.100;6.886;2023-02-03T07:50:36;3.55;;;1.50;;
60964;SDS011;46834;51.100;6.886;2023-02-03T07:53:03;3.28;;;1.23;;
60964;SDS011;46834;51.100;6.886;2023-02-03T07:55:29;2.15;;;1.35;;
60964;SDS011;46834;51.100;6.886;2023-02-03T07:57:56;2.55;;;1.05;;
60964;SDS011;46834;51.100;6.886;2023-02-03T08:00:23;5.82;;;1.30;;
60964;SDS011;46834;51.100;6.886;2023-02-03T08:02:49;3.15;;;1.25;;
60964;SDS011;46834;51.100;6.886;2023-02-03T08:05:15;3.15;;;0.93;;
60964;SDS011;46834;51.100;6.886;2023-02-03T08:07:42;2.13;;;1.00;;
60964;SDS011;46834;51.100;6.886;2023-02-03T08:10:09;2.28;;;1.02;;
60964;SDS011;46834;51.100;6.886;2023-02-03T08:12:39;2.78;;;1.27;;
60964;SDS011;46834;51.100;6.886;2023-02-03T08:15:07;3.10;;;1.23;;
60964;SDS011;46834;51.100;6.886;2023-02-03T08:17:33;4.00;;;1.10;;
60964;SDS011;46834;51.100;6.886;2023-02-03T08:19:59;3.33;;;1.23;;
60964;SDS011;46834;51.100;6.886;2023-02-03T08:22:25;3.53;;;1.42;;
60964;SDS011;46834;51.100;6.886;2023-02-03T08:24:51;3.67;;;1.38;;
60964;SDS011;46834;51.100;6.886;2023-02-03T08:27:18;3.65;;;1.20;;
60964;SDS011;46834;51.100;6.886;2023-02-03T08:29:46;4.93;;;1.48;;
60964;SDS011;46834;51.100;6.886;2023-02-03T08:32:14;2.75;;;1.48;;
60964;SDS011;46834;51.100;6.886;2023-02-03T08:34:50;2.35;;;1.30;;
60964;SDS011;46834;51.100;6.886;2023-02-03T08:37:18;2.97;;;1.38;;
60964;SDS011;46834;51.100;6.886;2023-02-03T08:39:48;3.60;;;1.20;;
60964;SDS011;46834;51.100;6.886;2023-02-03T08:42:15;3.92;;;1.15;;
60964;SDS011;46834;51.100;6.886;2023-02-03T08:44:41;3.90;;;1.20;;
60964;SDS011;46834;51.100;6.886;2023-02-03T08:47:08;5.20;;;1.80;;
60964;SDS011;46834;51.100;6.886;2023-02-03T08:49:34;2.88;;;1.00;;
60964;SDS011;46834;51.100;6.886;2023-02-03T08:52:03;2.58;;;1.20;;
60964;SDS011;46834;51.100;6.886;2023-02-03T08:54:32;3.22;;;1.20;;
60964;SDS011;46834;51.100;6.886;2023-02-03T08:56:58;8.50;;;1.50;;
60964;SDS011;46834;51.100;6.886;2023-02-03T08:59:24;5.32;;;1.00;;
60964;SDS011;46834;51.100;6.886;2023-02-03T09:01:50;6.47;;;1.73;;
60964;SDS011;46834;51.100;6.886;2023-02-03T09:04:17;2.92;;;1.35;;
60964;SDS011;46834;51.100;6.886;2023-02-03T09:06:48;8.00;;;1.75;;
60964;SDS011;46834;51.100;6.886;2023-02-03T09:09:21;2.22;;;1.20;;
60964;SDS011;46834;51.100;6.886;2023-02-03T09:11:47;4.10;;;1.17;;
60964;SDS011;46834;51.100;6.886;2023-02-03T09:14:13;2.53;;;1.10;;
60964;SDS011;46834;51.100;6.886;2023-02-03T09:16:40;2.92;;;1.20;;
60964;SDS011;46834;51.100;6.886;2023-02-03T09:19:05;2.55;;;1.15;;
60964;SDS011;46834;51.100;6.886;2023-02-03T09:21:31;3.67;;;1.50;;
60964;SDS011;46834;51.100;6.886;2023-02-03T09:24:01;3.60;;;1.58;;
60964;SDS011;46834;51.100;6.886;2023-02-03T09:26:27;3.88;;;1.55;;
60964;SDS011;46834;51.100;6.886;2023-02-03T09:28:53;3.65;;;1.27;;
60964;SDS011;46834;51.100;6.886;2023-02-03T09:31:19;3.53;;;1.20;;
60964;SDS011;46834;51.100;6.886;2023-02-03T09:33:45;2.92;;;1.30;;
60964;SDS011;46834;51.100;6.886;2023-02-03T09:36:11;2.45;;;1.25;;
60964;SDS011;46834;51.100;6.886;2023-02-03T09:38:38;3.67;;;1.27;;
60964;SDS011;46834;51.100;6.886;2023-02-03T09:43:55;3.15;;;1.40;;
60964;SDS011;46834;51.100;6.886;2023-02-03T09:47:10;3.33;;;1.38;;
60964;SDS011;46834;51.100;6.886;2023-02-03T09:49:39;3.13;;;1.25;;
60964;SDS011;46834;51.100;6.886;2023-02-03T09:52:19;2.97;;;1.30;;
60964;SDS011;46834;51.100;6.886;2023-02-03T09:58:04;2.70;;;1.33;;
60964;SDS011;46834;51.100;6.886;2023-02-03T10:01:01;3.90;;;1.33;;
60964;SDS011;46834;51.100;6.886;2023-02-03T10:03:37;3.28;;;1.30;;
60964;SDS011;46834;51.100;6.886;2023-02-03T10:06:46;2.85;;;1.42;;
60964;SDS011;46834;51.100;6.886;2023-02-03T10:09:22;4.88;;;1.55;;
60964;SDS011;46834;51.100;6.886;2023-02-03T10:18:31;4.60;;;1.70;;
60964;SDS011;46834;51.100;6.886;2023-02-03T10:23:53;4.18;;;1.65;;
60964;SDS011;46834;51.100;6.886;2023-02-03T10:26:23;5.95;;;1.73;;
60964;SDS011;46834;51.100;6.886;2023-02-03T10:28:53;2.60;;;1.40;;
60964;SDS011;46834;51.100;6.886;2023-02-03T10:31:22;3.80;;;1.50;;
60964;SDS011;46834;51.100;6.886;2023-02-03T10:33:58;2.15;;;1.52;;
60964;SDS011;46834;51.100;6.886;2023-02-03T10:36:55;3.10;;;1.40;;
60964;SDS011;46834;51.100;6.886;2023-02-03T10:42:16;2.67;;;1.40;;
60964;SDS011;46834;51.100;6.886;2023-02-03T10:47:25;2.90;;;1.70;;
60964;SDS011;46834;51.100;6.886;2023-02-03T10:49:59;4.93;;;1.67;;
60964;SDS011;46834;51.100;6.886;2023-02-03T10:52:33;2.80;;;1.75;;
60964;SDS011;46834;51.100;6.886;2023-02-03T10:55:07;2.67;;;1.70;;
60964;SDS011;46834;51.100;6.886;2023-02-03T10:57:55;3.35;;;2.03;;
60964;SDS011;46834;51.100;6.886;2023-02-03T11:00:23;2.42;;;2.10;;
60964;SDS011;46834;51.100;6.886;2023-02-03T11:02:55;4.80;;;2.10;;
60964;SDS011;46834;51.100;6.886;2023-02-03T11:05:32;3.45;;;2.00;;
60964;SDS011;46834;51.100;6.886;2023-02-03T11:07:58;3.95;;;1.90;;
60964;SDS011;46834;51.100;6.886;2023-02-03T11:16:05;4.63;;;2.38;;
60964;SDS011;46834;51.100;6.886;2023-02-03T11:21:30;5.05;;;2.53;;
60964;SDS011;46834;51.100;6.886;2023-02-03T11:27:22;4.13;;;2.40;;
60964;SDS011;46834;51.100;6.886;2023-02-03T11:29:37;4.10;;;1.92;;
60964;SDS011;46834;51.100;6.886;2023-02-03T11:37:49;3.88;;;2.25;;
60964;SDS011;46834;51.100;6.886;2023-02-03T11:47:51;4.03;;;2.55;;
60964;SDS011;46834;51.100;6.886;2023-02-03T11:50:27;2.40;;;2.10;;
60964;SDS011;46834;51.100;6.886;2023-02-03T12:01:49;4.93;;;2.47;;
60964;SDS011;46834;51.100;6.886;2023-02-03T12:13:06;4.70;;;2.88;;
60964;SDS011;46834;51.100;6.886;2023-02-03T12:25:17;4.65;;;2.80;;
60964;SDS011;46834;51.100;6.886;2023-02-03T12:28:05;3.92;;;2.63;;
60964;SDS011;46834;51.100;6.886;2023-02-03T12:34:32;3.80;;;2.60;;
60964;SDS011;46834;51.100;6.886;2023-02-03T12:40:21;4.55;;;2.60;;
60964;SDS011;46834;51.100;6.886;2023-02-03T12:46:12;5.28;;;2.47;;
60964;SDS011;46834;51.100;6.886;2023-02-03T12:51:37;3.92;;;2.58;;
60964;SDS011;46834;51.100;6.886;2023-02-03T12:54:26;4.40;;;2.35;;
60964;SDS011;46834;51.100;6.886;2023-02-03T13:06:08;3.10;;;2.35;;
60964;SDS011;46834;51.100;6.886;2023-02-03T13:12:02;4.75;;;2.30;;
60964;SDS011;46834;51.100;6.886;2023-02-03T13:18:04;8.55;;;2.80;;
60964;SDS011;46834;51.100;6.886;2023-02-03T13:20:53;3.80;;;2.10;;
60964;SDS011;46834;51.100;6.886;2023-02-03T13:23:20;3.17;;;2.00;;
60964;SDS011;46834;51.100;6.886;2023-02-03T13:43:30;4.72;;;2.00;;
60964;SDS011;46834;51.100;6.886;2023-02-03T13:46:06;3.38;;;1.67;;
60964;SDS011;46834;51.100;6.886;2023-02-03T13:48:48;6.15;;;1.60;;
60964;SDS011;46834;51.100;6.886;2023-02-03T13:53:57;3.58;;;2.00;;
60964;SDS011;46834;51.100;6.886;2023-02-03T13:56:52;6.35;;;1.90;;
60964;SDS011;46834;51.100;6.886;2023-02-03T13:59:28;3.90;;;1.77;;
60964;SDS011;46834;51.100;6.886;2023-02-03T14:02:28;5.43;;;1.63;;
60964;SDS011;46834;51.100;6.886;2023-02-03T14:05:06;3.67;;;1.95;;
60964;SDS011;46834;51.100;6.886;2023-02-03T14:16:54;5.47;;;1.85;;
60964;SDS011;46834;51.100;6.886;2023-02-03T14:21:50;5.30;;;1.70;;
60964;SDS011;46834;51.100;6.886;2023-02-03T14:24:20;2.70;;;1.60;;
60964;SDS011;46834;51.100;6.886;2023-02-03T14:26:48;3.88;;;1.70;;
60964;SDS011;46834;51.100;6.886;2023-02-03T14:32:00;3.17;;;1.73;;
60964;SDS011;46834;51.100;6.886;2023-02-03T14:40:08;4.05;;;1.77;;
60964;SDS011;46834;51.100;6.886;2023-02-03T14:43:03;4.10;;;1.80;;
60964;SDS011;46834;51.100;6.886;2023-02-03T14:45:54;4.90;;;1.60;;
60964;SDS011;46834;51.100;6.886;2023-02-03T14:49:18;5.35;;;1.75;;
60964;SDS011;46834;51.100;6.886;2023-02-03T14:52:02;4.07;;;1.85;;
60964;SDS011;46834;51.100;6.886;2023-02-03T14:55:03;2.42;;;1.30;;
60964;SDS011;46834;51.100;6.886;2023-02-03T14:57:55;2.95;;;1.80;;
60964;SDS011;46834;51.100;6.886;2023-02-03T15:00:29;6.55;;;2.10;;
60964;SDS011;46834;51.100;6.886;2023-02-03T15:05:41;3.25;;;1.80;;
60964;SDS011;46834;51.100;6.886;2023-02-03T15:11:22;5.85;;;1.50;;
60964;SDS011;46834;51.100;6.886;2023-02-03T15:16:59;4.78;;;1.80;;
60964;SDS011;46834;51.100;6.886;2023-02-03T15:19:37;5.47;;;1.83;;
60964;SDS011;46834;51.100;6.886;2023-02-03T15:22:16;7.10;;;1.85;;
60964;SDS011;46834;51.100;6.886;2023-02-03T15:24:55;3.55;;;1.65;;
60964;SDS011;46834;51.100;6.886;2023-02-03T15:27:28;5.50;;;1.70;;
60964;SDS011;46834;51.100;6.886;2023-02-03T15:29:56;6.07;;;2.00;;
60964;SDS011;46834;51.100;6.886;2023-02-03T15:32:30;3.95;;;1.63;;
60964;SDS011;46834;51.100;6.886;2023-02-03T15:35:05;5.53;;;2.10;;
60964;SDS011;46834;51.100;6.886;2023-02-03T15:40:16;7.40;;;2.00;;
60964;SDS011;46834;51.100;6.886;2023-02-03T15:46:12;5.32;;;1.77;;
60964;SDS011;46834;51.100;6.886;2023-02-03T15:51:24;4.05;;;1.52;;
60964;SDS011;46834;51.100;6.886;2023-02-03T15:53:58;5.78;;;1.60;;
60964;SDS011;46834;51.100;6.886;2023-02-03T15:59:36;4.43;;;1.35;;
60964;SDS011;46834;51.100;6.886;2023-02-03T16:04:57;5.57;;;1.58;;
60964;SDS011;46834;51.100;6.886;2023-02-03T16:07:45;5.20;;;1.73;;
60964;SDS011;46834;51.100;6.886;2023-02-03T16:10:27;5.75;;;1.73;;
60964;SDS011;46834;51.100;6.886;2023-02-03T16:18:39;6.25;;;2.03;;
60964;SDS011;46834;51.100;6.886;2023-02-03T16:21:32;6.63;;;1.95;;
60964;SDS011;46834;51.100;6.886;2023-02-03T16:30:14;7.00;;;1.85;;
60964;SDS011;46834;51.100;6.886;2023-02-03T16:33:09;7.78;;;1.70;;
60964;SDS011;46834;51.100;6.886;2023-02-03T16:36:12;4.65;;;1.80;;
60964;SDS011;46834;51.100;6.886;2023-02-03T16:38:57;9.40;;;1.92;;
60964;SDS011;46834;51.100;6.886;2023-02-03T16:41:48;7.65;;;2.40;;
60964;SDS011;46834;51.100;6.886;2023-02-03T16:44:32;6.40;;;2.30;;
60964;SDS011;46834;51.100;6.886;2023-02-03T16:47:27;7.05;;;2.00;;
60964;SDS011;46834;51.100;6.886;2023-02-03T16:50:15;8.93;;;2.30;;
60964;SDS011;46834;51.100;6.886;2023-02-03T16:53:03;8.55;;;2.30;;
60964;SDS011;46834;51.100;6.886;2023-02-03T16:55:30;9.23;;;2.30;;
60964;SDS011;46834;51.100;6.886;2023-02-03T16:57:55;5.88;;;1.65;;
60964;SDS011;46834;51.100;6.886;2023-02-03T17:00:21;5.43;;;1.80;;
60964;SDS011;46834;51.100;6.886;2023-02-03T17:02:48;6.95;;;2.17;;
60964;SDS011;46834;51.100;6.886;2023-02-03T17:05:16;6.50;;;1.85;;
60964;SDS011;46834;51.100;6.886;2023-02-03T17:07:43;7.45;;;1.83;;
60964;SDS011;46834;51.100;6.886;2023-02-03T17:10:09;9.55;;;2.15;;
60964;SDS011;46834;51.100;6.886;2023-02-03T17:12:35;6.50;;;1.85;;
60964;SDS011;46834;51.100;6.886;2023-02-03T17:15:02;7.40;;;1.98;;
60964;SDS011;46834;51.100;6.886;2023-02-03T17:17:32;7.30;;;2.15;;
60964;SDS011;46834;51.100;6.886;2023-02-03T17:19:58;5.60;;;2.10;;
60964;SDS011;46834;51.100;6.886;2023-02-03T17:22:25;6.72;;;2.05;;
60964;SDS011;46834;51.100;6.886;2023-02-03T17:24:51;7.53;;;1.92;;
60964;SDS011;46834;51.100;6.886;2023-02-03T17:27:17;5.95;;;1.90;;
60964;SDS011;46834;51.100;6.886;2023-02-03T17:29:43;6.60;;;2.13;;
60964;SDS011;46834;51.100;6.886;2023-02-03T17:32:09;6.45;;;2.45;;
60964;SDS011;46834;51.100;6.886;2023-02-03T17:34:39;5.70;;;2.35;;
60964;SDS011;46834;51.100;6.886;2023-02-03T17:37:05;8.68;;;2.20;;
60964;SDS011;46834;51.100;6.886;2023-02-03T17:39:31;6.25;;;1.92;;
60964;SDS011;46834;51.100;6.886;2023-02-03T17:41:56;6.03;;;1.95;;
60964;SDS011;46834;51.100;6.886;2023-02-03T17:44:22;4.35;;;1.73;;
60964;SDS011;46834;51.100;6.886;2023-02-03T17:46:48;8.13;;;2.05;;
60964;SDS011;46834;51.100;6.886;2023-02-03T17:49:13;6.15;;;2.08;;
60964;SDS011;46834;51.100;6.886;2023-02-03T17:51:39;6.65;;;2.28;;
60964;SDS011;46834;51.100;6.886;2023-02-03T17:54:05;7.32;;;2.35;;
60964;SDS011;46834;51.100;6.886;2023-02-03T17:56:31;10.68;;;2.42;;
60964;SDS011;46834;51.100;6.886;2023-02-03T17:59:00;10.38;;;2.50;;
60964;SDS011;46834;51.100;6.886;2023-02-03T18:01:27;5.25;;;2.33;;
60964;SDS011;46834;51.100;6.886;2023-02-03T18:03:54;8.30;;;2.40;;
60964;SDS011;46834;51.100;6.886;2023-02-03T18:06:23;5.40;;;2.60;;
60964;SDS011;46834;51.100;6.886;2023-02-03T18:08:51;9.65;;;2.65;;
60964;SDS011;46834;51.100;6.886;2023-02-03T18:11:17;6.50;;;2.28;;
60964;SDS011;46834;51.100;6.886;2023-02-03T18:13:45;9.20;;;2.50;;
60964;SDS011;46834;51.100;6.886;2023-02-03T18:16:20;9.48;;;2.40;;
60964;SDS011;46834;51.100;6.886;2023-02-03T18:18:50;7.63;;;2.30;;
60964;SDS011;46834;51.100;6.886;2023-02-03T18:21:17;6.70;;;2.33;;
60964;SDS011;46834;51.100;6.886;2023-02-03T18:23:45;9.48;;;2.45;;
60964;SDS011;46834;51.100;6.886;2023-02-03T18:26:12;11.43;;;2.38;;
60964;SDS011;46834;51.100;6.886;2023-02-03T18:28:39;11.13;;;2.20;;